sensor_id;sensor_type;location;lat;lon;timestamp;temperature;humidity
33023;DHT22;19390;51.460;5.710;2022-08-25T00:00:00;20.60;99.90
33023;DHT22;19390;51.460;5.710;2022-08-25T00:02:25;20.60;99.90
33023;DHT22;19390;51.460;5.710;2022-08-25T00:04:51;20.50;99.90
33023;DHT22;19390;51.460;5.710;2022-08-25T00:07:17;20.50;99.90
33023;DHT22;19390;51.460;5.710;2022-08-25T00:09:42;20.50;99.90
33023;DHT22;19390;51.460;5.710;2022-08-25T00:12:08;20.50;99.90
33023;DHT22;19390;51.460;5.710;2022-08-25T00:14:35;20.40;99.90
33023;DHT22;19390;51.460;5.710;2022-08-25T00:17:03;20.30;99.90
33023;DHT22;19390;51.460;5.710;2022-08-25T00:19:33;20.20;99.90
33023;DHT22;19390;51.460;5.710;2022-08-25T00:21:59;20.10;99.90
33023;DHT22;19390;51.460;5.710;2022-08-25T00:24:25;20.00;99.90
33023;DHT22;19390;51.460;5.710;2022-08-25T00:26:53;19.90;99.90
33023;DHT22;19390;51.460;5.710;2022-08-25T00:29:20;20.20;99.90
33023;DHT22;19390;51.460;5.710;2022-08-25T00:31:46;20.10;99.90
33023;DHT22;19390;51.460;5.710;2022-08-25T00:34:16;20.10;99.90
33023;DHT22;19390;51.460;5.710;2022-08-25T00:36:43;20.10;99.90
33023;DHT22;19390;51.460;5.710;2022-08-25T00:39:10;20.00;99.90
33023;DHT22;19390;51.460;5.710;2022-08-25T00:41:37;19.70;99.90
33023;DHT22;19390;51.460;5.710;2022-08-25T00:44:05;19.60;99.90
33023;DHT22;19390;51.460;5.710;2022-08-25T00:46:43;19.50;99.90
33023;DHT22;19390;51.460;5.710;2022-08-25T00:49:15;19.50;99.90
33023;DHT22;19390;51.460;5.710;2022-08-25T00:51:45;19.60;99.90
33023;DHT22;19390;51.460;5.710;2022-08-25T00:54:21;19.50;99.90
33023;DHT22;19390;51.460;5.710;2022-08-25T00:56:48;19.70;99.90
33023;DHT22;19390;51.460;5.710;2022-08-25T00:59:20;20.00;99.90
33023;DHT22;19390;51.460;5.710;2022-08-25T01:01:48;20.00;99.90
33023;DHT22;19390;51.460;5.710;2022-08-25T01:04:14;19.80;99.90
33023;DHT22;19390;51.460;5.710;2022-08-25T01:06:41;19.50;99.90
33023;DHT22;19390;51.460;5.710;2022-08-25T01:09:12;19.40;99.90
33023;DHT22;19390;51.460;5.710;2022-08-25T01:11:41;19.40;99.90
33023;DHT22;19390;51.460;5.710;2022-08-25T01:14:10;19.40;99.90
33023;DHT22;19390;51.460;5.710;2022-08-25T01:16:37;19.40;99.90
33023;DHT22;19390;51.460;5.710;2022-08-25T01:19:05;19.20;99.90
33023;DHT22;19390;51.460;5.710;2022-08-25T01:21:37;19.10;99.90
33023;DHT22;19390;51.460;5.710;2022-08-25T01:24:04;19.00;99.90
33023;DHT22;19390;51.460;5.710;2022-08-25T01:26:33;18.90;99.90
33023;DHT22;19390;51.460;5.710;2022-08-25T01:29:03;18.90;99.90
33023;DHT22;19390;51.460;5.710;2022-08-25T01:31:56;18.70;99.90
33023;DHT22;19390;51.460;5.710;2022-08-25T01:34:24;18.60;99.90
33023;DHT22;19390;51.460;5.710;2022-08-25T01:36:50;18.50;99.90
33023;DHT22;19390;51.460;5.710;2022-08-25T01:39:16;18.40;99.90
33023;DHT22;19390;51.460;5.710;2022-08-25T01:42:03;18.30;99.90
33023;DHT22;19390;51.460;5.710;2022-08-25T01:44:41;18.40;99.90
33023;DHT22;19390;51.460;5.710;2022-08-25T01:47:09;18.30;99.90
33023;DHT22;19390;51.460;5.710;2022-08-25T01:49:35;18.30;99.90
33023;DHT22;19390;51.460;5.710;2022-08-25T01:52:06;18.10;99.90
33023;DHT22;19390;51.460;5.710;2022-08-25T01:54:34;18.10;99.90
33023;DHT22;19390;51.460;5.710;2022-08-25T01:57:00;18.10;99.90
33023;DHT22;19390;51.460;5.710;2022-08-25T01:59:26;18.00;99.90
33023;DHT22;19390;51.460;5.710;2022-08-25T02:01:52;18.00;99.90
33023;DHT22;19390;51.460;5.710;2022-08-25T02:04:18;17.90;99.90
33023;DHT22;19390;51.460;5.710;2022-08-25T02:06:44;17.80;99.90
33023;DHT22;19390;51.460;5.710;2022-08-25T02:09:11;17.80;99.90
33023;DHT22;19390;51.460;5.710;2022-08-25T02:11:39;17.80;99.90
33023;DHT22;19390;51.460;5.710;2022-08-25T02:14:07;17.70;99.90
33023;DHT22;19390;51.460;5.710;2022-08-25T02:16:36;17.70;99.90
33023;DHT22;19390;51.460;5.710;2022-08-25T02:19:08;17.70;99.90
33023;DHT22;19390;51.460;5.710;2022-08-25T02:21:35;17.70;99.90
33023;DHT22;19390;51.460;5.710;2022-08-25T02:24:02;17.70;99.90
33023;DHT22;19390;51.460;5.710;2022-08-25T02:26:28;17.70;99.90
33023;DHT22;19390;51.460;5.710;2022-08-25T02:28:54;17.80;99.90
33023;DHT22;19390;51.460;5.710;2022-08-25T02:31:21;17.70;99.90
33023;DHT22;19390;51.460;5.710;2022-08-25T02:33:48;17.80;99.90
33023;DHT22;19390;51.460;5.710;2022-08-25T02:36:14;17.80;99.90
33023;DHT22;19390;51.460;5.710;2022-08-25T02:38:40;17.70;99.90
33023;DHT22;19390;51.460;5.710;2022-08-25T02:41:17;17.60;99.90
33023;DHT22;19390;51.460;5.710;2022-08-25T02:43:45;17.60;99.90
33023;DHT22;19390;51.460;5.710;2022-08-25T02:46:12;17.60;99.90
33023;DHT22;19390;51.460;5.710;2022-08-25T02:48:39;17.60;99.90
33023;DHT22;19390;51.460;5.710;2022-08-25T02:51:07;17.60;99.90
33023;DHT22;19390;51.460;5.710;2022-08-25T02:53:35;17.60;99.90
33023;DHT22;19390;51.460;5.710;2022-08-25T02:56:02;17.60;99.90
33023;DHT22;19390;51.460;5.710;2022-08-25T02:58:29;17.70;99.90
33023;DHT22;19390;51.460;5.710;2022-08-25T03:00:54;18.10;99.90
33023;DHT22;19390;51.460;5.710;2022-08-25T03:03:21;18.10;99.90
33023;DHT22;19390;51.460;5.710;2022-08-25T03:05:46;18.20;99.90
33023;DHT22;19390;51.460;5.710;2022-08-25T03:08:12;18.30;99.90
33023;DHT22;19390;51.460;5.710;2022-08-25T03:10:38;18.20;99.90
33023;DHT22;19390;51.460;5.710;2022-08-25T03:13:04;18.30;99.90
33023;DHT22;19390;51.460;5.710;2022-08-25T03:15:30;18.40;99.90
33023;DHT22;19390;51.460;5.710;2022-08-25T03:17:56;18.50;99.90
33023;DHT22;19390;51.460;5.710;2022-08-25T03:20:24;18.40;99.90
33023;DHT22;19390;51.460;5.710;2022-08-25T03:22:50;18.30;99.90
33023;DHT22;19390;51.460;5.710;2022-08-25T03:25:16;18.40;99.90
33023;DHT22;19390;51.460;5.710;2022-08-25T03:28:00;18.30;99.90
33023;DHT22;19390;51.460;5.710;2022-08-25T03:30:27;18.10;99.90
33023;DHT22;19390;51.460;5.710;2022-08-25T03:32:54;17.90;99.90
33023;DHT22;19390;51.460;5.710;2022-08-25T03:35:19;18.00;99.90
33023;DHT22;19390;51.460;5.710;2022-08-25T03:37:45;18.10;99.90
33023;DHT22;19390;51.460;5.710;2022-08-25T03:40:14;18.10;99.90
33023;DHT22;19390;51.460;5.710;2022-08-25T03:42:43;18.00;99.90
33023;DHT22;19390;51.460;5.710;2022-08-25T03:45:09;17.90;99.90
33023;DHT22;19390;51.460;5.710;2022-08-25T03:47:38;17.90;99.90
33023;DHT22;19390;51.460;5.710;2022-08-25T03:50:06;17.80;99.90
33023;DHT22;19390;51.460;5.710;2022-08-25T03:52:32;18.20;99.90
33023;DHT22;19390;51.460;5.710;2022-08-25T03:54:58;18.10;99.90
33023;DHT22;19390;51.460;5.710;2022-08-25T03:57:24;18.00;99.90
33023;DHT22;19390;51.460;5.710;2022-08-25T03:59:49;17.80;99.90
33023;DHT22;19390;51.460;5.710;2022-08-25T04:02:17;17.80;99.90
33023;DHT22;19390;51.460;5.710;2022-08-25T04:04:42;17.80;99.90
33023;DHT22;19390;51.460;5.710;2022-08-25T04:07:08;17.90;99.90
33023;DHT22;19390;51.460;5.710;2022-08-25T04:09:34;17.90;99.90
33023;DHT22;19390;51.460;5.710;2022-08-25T04:12:00;17.80;99.90
33023;DHT22;19390;51.460;5.710;2022-08-25T04:14:25;17.80;99.90
33023;DHT22;19390;51.460;5.710;2022-08-25T04:16:51;17.80;99.90
33023;DHT22;19390;51.460;5.710;2022-08-25T04:19:18;17.80;99.90
33023;DHT22;19390;51.460;5.710;2022-08-25T04:21:45;18.10;99.90
33023;DHT22;19390;51.460;5.710;2022-08-25T04:24:11;18.40;99.90
33023;DHT22;19390;51.460;5.710;2022-08-25T04:26:44;18.20;99.90
33023;DHT22;19390;51.460;5.710;2022-08-25T04:29:11;18.20;99.90
33023;DHT22;19390;51.460;5.710;2022-08-25T04:31:42;18.30;99.90
33023;DHT22;19390;51.460;5.710;2022-08-25T04:34:08;18.40;99.90
33023;DHT22;19390;51.460;5.710;2022-08-25T04:36:36;18.50;99.90
33023;DHT22;19390;51.460;5.710;2022-08-25T04:39:02;18.50;99.90
33023;DHT22;19390;51.460;5.710;2022-08-25T04:41:28;18.70;99.90
33023;DHT22;19390;51.460;5.710;2022-08-25T04:43:57;18.70;99.90
33023;DHT22;19390;51.460;5.710;2022-08-25T04:46:25;18.80;99.90
33023;DHT22;19390;51.460;5.710;2022-08-25T04:48:52;18.70;99.90
33023;DHT22;19390;51.460;5.710;2022-08-25T04:51:25;18.70;99.90
33023;DHT22;19390;51.460;5.710;2022-08-25T04:53:51;18.60;99.90
33023;DHT22;19390;51.460;5.710;2022-08-25T04:56:19;18.70;99.90
33023;DHT22;19390;51.460;5.710;2022-08-25T04:58:45;18.60;99.90
33023;DHT22;19390;51.460;5.710;2022-08-25T05:01:16;18.60;99.90
33023;DHT22;19390;51.460;5.710;2022-08-25T05:03:44;18.60;99.90
33023;DHT22;19390;51.460;5.710;2022-08-25T05:06:10;18.60;99.90
33023;DHT22;19390;51.460;5.710;2022-08-25T05:08:36;18.80;99.90
33023;DHT22;19390;51.460;5.710;2022-08-25T05:11:06;19.00;99.90
33023;DHT22;19390;51.460;5.710;2022-08-25T05:13:33;19.00;99.90
33023;DHT22;19390;51.460;5.710;2022-08-25T05:15:59;19.00;99.90
33023;DHT22;19390;51.460;5.710;2022-08-25T05:18:28;19.20;99.90
33023;DHT22;19390;51.460;5.710;2022-08-25T05:20:54;19.20;99.90
33023;DHT22;19390;51.460;5.710;2022-08-25T05:23:24;19.40;99.90
33023;DHT22;19390;51.460;5.710;2022-08-25T05:25:51;19.50;99.90
33023;DHT22;19390;51.460;5.710;2022-08-25T05:28:18;19.50;99.90
33023;DHT22;19390;51.460;5.710;2022-08-25T05:30:44;19.50;99.90
33023;DHT22;19390;51.460;5.710;2022-08-25T05:33:11;19.60;99.90
33023;DHT22;19390;51.460;5.710;2022-08-25T05:35:37;19.90;99.90
33023;DHT22;19390;51.460;5.710;2022-08-25T05:38:04;20.60;99.90
33023;DHT22;19390;51.460;5.710;2022-08-25T05:40:30;22.20;99.90
33023;DHT22;19390;51.460;5.710;2022-08-25T05:42:56;23.90;99.90
33023;DHT22;19390;51.460;5.710;2022-08-25T05:45:22;24.50;99.90
33023;DHT22;19390;51.460;5.710;2022-08-25T05:47:48;25.70;99.90
33023;DHT22;19390;51.460;5.710;2022-08-25T05:50:14;24.40;99.90
33023;DHT22;19390;51.460;5.710;2022-08-25T05:52:40;24.70;99.90
33023;DHT22;19390;51.460;5.710;2022-08-25T05:55:06;24.70;99.90
33023;DHT22;19390;51.460;5.710;2022-08-25T05:57:32;25.50;99.90
33023;DHT22;19390;51.460;5.710;2022-08-25T05:59:59;26.20;99.90
33023;DHT22;19390;51.460;5.710;2022-08-25T06:02:24;26.90;99.90
33023;DHT22;19390;51.460;5.710;2022-08-25T06:05:07;26.60;99.90
33023;DHT22;19390;51.460;5.710;2022-08-25T06:07:33;27.90;99.90
33023;DHT22;19390;51.460;5.710;2022-08-25T06:10:04;27.90;99.90
33023;DHT22;19390;51.460;5.710;2022-08-25T06:12:32;27.10;99.90
33023;DHT22;19390;51.460;5.710;2022-08-25T06:14:58;27.20;99.90
33023;DHT22;19390;51.460;5.710;2022-08-25T06:17:23;26.90;99.90
33023;DHT22;19390;51.460;5.710;2022-08-25T06:19:49;26.90;99.90
33023;DHT22;19390;51.460;5.710;2022-08-25T06:22:14;27.80;99.90
33023;DHT22;19390;51.460;5.710;2022-08-25T06:24:40;28.50;99.90
33023;DHT22;19390;51.460;5.710;2022-08-25T06:27:05;27.80;99.90
33023;DHT22;19390;51.460;5.710;2022-08-25T06:29:31;28.20;99.90
33023;DHT22;19390;51.460;5.710;2022-08-25T06:31:57;30.40;99.90
33023;DHT22;19390;51.460;5.710;2022-08-25T06:34:22;28.70;99.90
33023;DHT22;19390;51.460;5.710;2022-08-25T06:36:48;29.40;99.90
33023;DHT22;19390;51.460;5.710;2022-08-25T06:39:15;28.50;99.90
33023;DHT22;19390;51.460;5.710;2022-08-25T06:41:41;29.20;99.90
33023;DHT22;19390;51.460;5.710;2022-08-25T06:44:06;28.50;99.90
33023;DHT22;19390;51.460;5.710;2022-08-25T06:46:32;29.90;99.90
33023;DHT22;19390;51.460;5.710;2022-08-25T06:48:58;29.00;99.90
33023;DHT22;19390;51.460;5.710;2022-08-25T06:51:25;28.10;99.90
33023;DHT22;19390;51.460;5.710;2022-08-25T06:53:52;29.80;99.90
33023;DHT22;19390;51.460;5.710;2022-08-25T06:56:19;29.90;99.90
33023;DHT22;19390;51.460;5.710;2022-08-25T06:58:46;30.50;99.90
33023;DHT22;19390;51.460;5.710;2022-08-25T07:01:18;29.70;99.90
33023;DHT22;19390;51.460;5.710;2022-08-25T07:03:47;29.20;99.90
33023;DHT22;19390;51.460;5.710;2022-08-25T07:06:12;31.20;99.90
33023;DHT22;19390;51.460;5.710;2022-08-25T07:08:38;31.50;99.90
33023;DHT22;19390;51.460;5.710;2022-08-25T07:11:06;31.30;99.90
33023;DHT22;19390;51.460;5.710;2022-08-25T07:13:32;32.60;99.90
33023;DHT22;19390;51.460;5.710;2022-08-25T07:15:57;31.00;99.90
33023;DHT22;19390;51.460;5.710;2022-08-25T07:18:23;32.20;99.90
33023;DHT22;19390;51.460;5.710;2022-08-25T07:20:49;31.60;99.90
33023;DHT22;19390;51.460;5.710;2022-08-25T07:23:16;30.90;99.90
33023;DHT22;19390;51.460;5.710;2022-08-25T07:25:42;32.40;99.90
33023;DHT22;19390;51.460;5.710;2022-08-25T07:28:08;31.10;99.90
33023;DHT22;19390;51.460;5.710;2022-08-25T07:30:33;32.60;99.90
33023;DHT22;19390;51.460;5.710;2022-08-25T07:32:59;33.60;99.90
33023;DHT22;19390;51.460;5.710;2022-08-25T07:35:24;32.90;99.90
33023;DHT22;19390;51.460;5.710;2022-08-25T07:37:53;34.20;99.90
33023;DHT22;19390;51.460;5.710;2022-08-25T07:40:31;32.90;99.90
33023;DHT22;19390;51.460;5.710;2022-08-25T07:43:00;34.20;99.90
33023;DHT22;19390;51.460;5.710;2022-08-25T07:45:29;33.20;99.90
33023;DHT22;19390;51.460;5.710;2022-08-25T07:48:00;33.60;99.90
33023;DHT22;19390;51.460;5.710;2022-08-25T07:50:27;33.10;99.90
33023;DHT22;19390;51.460;5.710;2022-08-25T07:52:55;36.30;99.90
33023;DHT22;19390;51.460;5.710;2022-08-25T07:55:21;34.10;99.90
33023;DHT22;19390;51.460;5.710;2022-08-25T07:57:47;35.70;99.90
33023;DHT22;19390;51.460;5.710;2022-08-25T08:00:14;35.60;99.90
33023;DHT22;19390;51.460;5.710;2022-08-25T08:02:40;34.50;99.90
33023;DHT22;19390;51.460;5.710;2022-08-25T08:05:07;34.00;99.90
33023;DHT22;19390;51.460;5.710;2022-08-25T08:07:33;34.00;99.90
33023;DHT22;19390;51.460;5.710;2022-08-25T08:10:00;35.30;99.90
33023;DHT22;19390;51.460;5.710;2022-08-25T08:12:26;35.00;99.90
33023;DHT22;19390;51.460;5.710;2022-08-25T08:14:52;34.90;99.90
33023;DHT22;19390;51.460;5.710;2022-08-25T08:17:18;34.70;99.90
33023;DHT22;19390;51.460;5.710;2022-08-25T08:19:44;37.90;99.90
33023;DHT22;19390;51.460;5.710;2022-08-25T08:22:11;36.40;99.90
33023;DHT22;19390;51.460;5.710;2022-08-25T08:24:39;34.80;99.90
33023;DHT22;19390;51.460;5.710;2022-08-25T08:27:06;35.70;99.90
33023;DHT22;19390;51.460;5.710;2022-08-25T08:29:33;38.90;99.90
33023;DHT22;19390;51.460;5.710;2022-08-25T08:31:59;37.90;99.40
33023;DHT22;19390;51.460;5.710;2022-08-25T08:34:25;36.20;99.90
33023;DHT22;19390;51.460;5.710;2022-08-25T08:36:51;35.10;99.90
33023;DHT22;19390;51.460;5.710;2022-08-25T08:39:17;37.40;99.90
33023;DHT22;19390;51.460;5.710;2022-08-25T08:41:54;35.60;99.90
33023;DHT22;19390;51.460;5.710;2022-08-25T08:55:48;36.90;99.90
33023;DHT22;19390;51.460;5.710;2022-08-25T08:58:39;37.30;98.60
33023;DHT22;19390;51.460;5.710;2022-08-25T09:01:08;40.30;96.70
33023;DHT22;19390;51.460;5.710;2022-08-25T09:03:41;41.50;96.00
33023;DHT22;19390;51.460;5.710;2022-08-25T09:06:11;39.20;94.00
33023;DHT22;19390;51.460;5.710;2022-08-25T09:08:39;40.80;94.70
33023;DHT22;19390;51.460;5.710;2022-08-25T09:14:01;39.00;95.00
33023;DHT22;19390;51.460;5.710;2022-08-25T09:28:08;38.70;92.00
33023;DHT22;19390;51.460;5.710;2022-08-25T09:30:46;39.20;92.80
33023;DHT22;19390;51.460;5.710;2022-08-25T09:33:19;41.40;92.40
33023;DHT22;19390;51.460;5.710;2022-08-25T09:35:46;41.10;90.10
33023;DHT22;19390;51.460;5.710;2022-08-25T09:38:12;36.20;93.20
33023;DHT22;19390;51.460;5.710;2022-08-25T09:40:44;37.50;93.80
33023;DHT22;19390;51.460;5.710;2022-08-25T09:43:33;37.30;93.40
33023;DHT22;19390;51.460;5.710;2022-08-25T09:46:15;37.90;92.50
33023;DHT22;19390;51.460;5.710;2022-08-25T09:48:52;37.40;93.10
33023;DHT22;19390;51.460;5.710;2022-08-25T09:51:31;40.10;91.80
33023;DHT22;19390;51.460;5.710;2022-08-25T09:56:48;41.30;89.90
33023;DHT22;19390;51.460;5.710;2022-08-25T09:59:27;39.70;90.40
33023;DHT22;19390;51.460;5.710;2022-08-25T10:01:55;37.00;93.10
33023;DHT22;19390;51.460;5.710;2022-08-25T10:04:33;39.30;91.50
33023;DHT22;19390;51.460;5.710;2022-08-25T10:07:04;38.50;91.50
33023;DHT22;19390;51.460;5.710;2022-08-25T10:09:41;37.60;91.30
33023;DHT22;19390;51.460;5.710;2022-08-25T10:12:40;39.00;91.90
33023;DHT22;19390;51.460;5.710;2022-08-25T10:17:53;38.80;91.90
33023;DHT22;19390;51.460;5.710;2022-08-25T10:20:22;41.30;90.70
33023;DHT22;19390;51.460;5.710;2022-08-25T10:22:49;43.90;89.50
33023;DHT22;19390;51.460;5.710;2022-08-25T10:25:49;42.00;89.80
33023;DHT22;19390;51.460;5.710;2022-08-25T10:28:30;40.00;86.40
33023;DHT22;19390;51.460;5.710;2022-08-25T10:31:22;41.90;86.00
33023;DHT22;19390;51.460;5.710;2022-08-25T10:44:51;40.60;85.20
33023;DHT22;19390;51.460;5.710;2022-08-25T10:50:42;43.30;79.60
33023;DHT22;19390;51.460;5.710;2022-08-25T10:53:26;42.70;78.50
33023;DHT22;19390;51.460;5.710;2022-08-25T11:04:06;38.30;79.30
33023;DHT22;19390;51.460;5.710;2022-08-25T11:06:38;40.60;77.70
33023;DHT22;19390;51.460;5.710;2022-08-25T11:09:13;37.30;73.50
33023;DHT22;19390;51.460;5.710;2022-08-25T11:11:57;37.10;77.40
33023;DHT22;19390;51.460;5.710;2022-08-25T11:14:33;36.90;75.70
33023;DHT22;19390;51.460;5.710;2022-08-25T11:17:22;38.70;72.20
33023;DHT22;19390;51.460;5.710;2022-08-25T11:19:53;37.90;76.00
33023;DHT22;19390;51.460;5.710;2022-08-25T11:25:13;36.30;76.50
33023;DHT22;19390;51.460;5.710;2022-08-25T11:27:56;34.90;79.00
33023;DHT22;19390;51.460;5.710;2022-08-25T11:30:23;35.40;83.90
33023;DHT22;19390;51.460;5.710;2022-08-25T11:32:52;35.00;82.80
33023;DHT22;19390;51.460;5.710;2022-08-25T11:35:32;35.10;82.40
33023;DHT22;19390;51.460;5.710;2022-08-25T11:46:24;34.60;81.80
33023;DHT22;19390;51.460;5.710;2022-08-25T11:51:55;36.10;83.00
33023;DHT22;19390;51.460;5.710;2022-08-25T11:54:33;34.20;85.00
33023;DHT22;19390;51.460;5.710;2022-08-25T11:57:06;37.10;83.20
33023;DHT22;19390;51.460;5.710;2022-08-25T12:24:54;37.20;79.20
33023;DHT22;19390;51.460;5.710;2022-08-25T12:38:00;42.90;72.00
33023;DHT22;19390;51.460;5.710;2022-08-25T12:40:33;43.40;72.30
33023;DHT22;19390;51.460;5.710;2022-08-25T12:45:44;43.00;71.90
33023;DHT22;19390;51.460;5.710;2022-08-25T12:51:16;42.80;71.20
33023;DHT22;19390;51.460;5.710;2022-08-25T12:53:50;41.70;70.00
33023;DHT22;19390;51.460;5.710;2022-08-25T12:56:31;40.90;72.00
33023;DHT22;19390;51.460;5.710;2022-08-25T13:04:34;37.70;75.00
33023;DHT22;19390;51.460;5.710;2022-08-25T13:09:56;41.60;70.30
33023;DHT22;19390;51.460;5.710;2022-08-25T13:12:39;41.60;71.60
33023;DHT22;19390;51.460;5.710;2022-08-25T13:15:05;42.50;68.80
33023;DHT22;19390;51.460;5.710;2022-08-25T13:17:36;41.10;68.40
33023;DHT22;19390;51.460;5.710;2022-08-25T13:20:22;42.50;69.40
33023;DHT22;19390;51.460;5.710;2022-08-25T13:22:50;42.30;68.80
33023;DHT22;19390;51.460;5.710;2022-08-25T13:25:23;42.90;69.40
33023;DHT22;19390;51.460;5.710;2022-08-25T13:27:55;40.90;69.80
33023;DHT22;19390;51.460;5.710;2022-08-25T13:30:28;40.80;71.20
33023;DHT22;19390;51.460;5.710;2022-08-25T13:32:55;42.40;69.50
33023;DHT22;19390;51.460;5.710;2022-08-25T13:35:29;42.20;69.00
33023;DHT22;19390;51.460;5.710;2022-08-25T13:38:13;40.70;69.90
33023;DHT22;19390;51.460;5.710;2022-08-25T13:40:39;41.90;68.70
33023;DHT22;19390;51.460;5.710;2022-08-25T13:43:08;38.40;71.30
33023;DHT22;19390;51.460;5.710;2022-08-25T13:45:38;39.60;72.20
33023;DHT22;19390;51.460;5.710;2022-08-25T13:48:05;40.60;68.10
33023;DHT22;19390;51.460;5.710;2022-08-25T13:50:33;40.20;69.90
33023;DHT22;19390;51.460;5.710;2022-08-25T13:55:40;40.90;68.90
33023;DHT22;19390;51.460;5.710;2022-08-25T13:58:14;41.90;68.40
33023;DHT22;19390;51.460;5.710;2022-08-25T14:00:46;40.10;67.60
33023;DHT22;19390;51.460;5.710;2022-08-25T14:03:47;40.80;68.30
33023;DHT22;19390;51.460;5.710;2022-08-25T14:08:41;39.30;68.60
33023;DHT22;19390;51.460;5.710;2022-08-25T14:11:14;37.30;72.00
33023;DHT22;19390;51.460;5.710;2022-08-25T14:13:44;37.70;72.10
33023;DHT22;19390;51.460;5.710;2022-08-25T14:16:21;39.30;68.30
33023;DHT22;19390;51.460;5.710;2022-08-25T14:18:50;37.90;69.90
33023;DHT22;19390;51.460;5.710;2022-08-25T14:21:18;38.70;70.60
33023;DHT22;19390;51.460;5.710;2022-08-25T14:23:44;39.10;69.70
33023;DHT22;19390;51.460;5.710;2022-08-25T14:26:10;39.60;68.70
33023;DHT22;19390;51.460;5.710;2022-08-25T14:28:37;39.40;68.50
33023;DHT22;19390;51.460;5.710;2022-08-25T14:31:08;39.40;68.20
33023;DHT22;19390;51.460;5.710;2022-08-25T14:33:54;39.40;67.20
33023;DHT22;19390;51.460;5.710;2022-08-25T14:36:21;40.50;68.10
33023;DHT22;19390;51.460;5.710;2022-08-25T14:38:47;39.50;66.10
33023;DHT22;19390;51.460;5.710;2022-08-25T14:41:12;39.30;67.50
33023;DHT22;19390;51.460;5.710;2022-08-25T14:43:38;38.20;67.80
33023;DHT22;19390;51.460;5.710;2022-08-25T14:46:09;38.10;68.70
33023;DHT22;19390;51.460;5.710;2022-08-25T14:48:43;37.50;68.40
33023;DHT22;19390;51.460;5.710;2022-08-25T14:51:11;37.60;68.20
33023;DHT22;19390;51.460;5.710;2022-08-25T14:53:37;38.20;68.60
33023;DHT22;19390;51.460;5.710;2022-08-25T14:56:03;38.10;69.00
33023;DHT22;19390;51.460;5.710;2022-08-25T14:58:29;38.10;69.30
33023;DHT22;19390;51.460;5.710;2022-08-25T15:00:56;38.10;68.70
33023;DHT22;19390;51.460;5.710;2022-08-25T15:03:29;37.90;67.80
33023;DHT22;19390;51.460;5.710;2022-08-25T15:05:55;37.90;68.00
33023;DHT22;19390;51.460;5.710;2022-08-25T15:08:21;37.40;70.00
33023;DHT22;19390;51.460;5.710;2022-08-25T15:11:05;37.70;69.00
33023;DHT22;19390;51.460;5.710;2022-08-25T15:13:31;37.40;67.90
33023;DHT22;19390;51.460;5.710;2022-08-25T15:15:57;36.20;71.20
33023;DHT22;19390;51.460;5.710;2022-08-25T15:18:22;36.90;72.80
33023;DHT22;19390;51.460;5.710;2022-08-25T15:20:50;35.80;72.00
33023;DHT22;19390;51.460;5.710;2022-08-25T15:23:18;34.80;73.70
33023;DHT22;19390;51.460;5.710;2022-08-25T15:25:46;34.80;75.00
33023;DHT22;19390;51.460;5.710;2022-08-25T15:28:12;35.00;75.30
33023;DHT22;19390;51.460;5.710;2022-08-25T15:30:38;36.30;72.90
33023;DHT22;19390;51.460;5.710;2022-08-25T15:33:04;36.10;72.70
33023;DHT22;19390;51.460;5.710;2022-08-25T15:35:30;36.40;72.40
33023;DHT22;19390;51.460;5.710;2022-08-25T15:37:55;35.70;73.10
33023;DHT22;19390;51.460;5.710;2022-08-25T15:40:21;35.80;72.20
33023;DHT22;19390;51.460;5.710;2022-08-25T15:42:47;35.70;72.80
33023;DHT22;19390;51.460;5.710;2022-08-25T15:45:12;35.50;74.70
33023;DHT22;19390;51.460;5.710;2022-08-25T15:47:38;35.60;73.00
33023;DHT22;19390;51.460;5.710;2022-08-25T15:50:07;35.40;73.50
33023;DHT22;19390;51.460;5.710;2022-08-25T15:52:33;34.70;71.80
33023;DHT22;19390;51.460;5.710;2022-08-25T15:54:59;34.70;72.00
33023;DHT22;19390;51.460;5.710;2022-08-25T15:57:25;35.00;73.60
33023;DHT22;19390;51.460;5.710;2022-08-25T15:59:51;34.80;74.20
33023;DHT22;19390;51.460;5.710;2022-08-25T16:02:17;34.70;74.30
33023;DHT22;19390;51.460;5.710;2022-08-25T16:04:42;34.80;72.30
33023;DHT22;19390;51.460;5.710;2022-08-25T16:07:08;34.80;72.10
33023;DHT22;19390;51.460;5.710;2022-08-25T16:09:34;34.70;72.50
33023;DHT22;19390;51.460;5.710;2022-08-25T16:12:00;34.50;73.30
33023;DHT22;19390;51.460;5.710;2022-08-25T16:14:26;34.60;72.70
33023;DHT22;19390;51.460;5.710;2022-08-25T16:16:52;34.40;73.80
33023;DHT22;19390;51.460;5.710;2022-08-25T16:19:17;34.20;73.80
33023;DHT22;19390;51.460;5.710;2022-08-25T16:21:43;34.20;74.10
33023;DHT22;19390;51.460;5.710;2022-08-25T16:24:09;34.10;73.70
33023;DHT22;19390;51.460;5.710;2022-08-25T16:26:35;34.00;75.00
33023;DHT22;19390;51.460;5.710;2022-08-25T16:29:03;34.00;75.20
33023;DHT22;19390;51.460;5.710;2022-08-25T16:31:29;33.90;75.90
33023;DHT22;19390;51.460;5.710;2022-08-25T16:33:55;33.70;73.70
33023;DHT22;19390;51.460;5.710;2022-08-25T16:36:23;33.60;74.30
33023;DHT22;19390;51.460;5.710;2022-08-25T16:38:50;33.40;76.50
33023;DHT22;19390;51.460;5.710;2022-08-25T16:41:19;33.30;77.00
33023;DHT22;19390;51.460;5.710;2022-08-25T16:43:45;33.20;77.10
33023;DHT22;19390;51.460;5.710;2022-08-25T16:46:14;33.10;75.60
33023;DHT22;19390;51.460;5.710;2022-08-25T16:48:40;33.00;76.60
33023;DHT22;19390;51.460;5.710;2022-08-25T16:51:08;32.80;77.10
33023;DHT22;19390;51.460;5.710;2022-08-25T16:53:34;32.80;78.50
33023;DHT22;19390;51.460;5.710;2022-08-25T16:56:18;32.70;78.10
33023;DHT22;19390;51.460;5.710;2022-08-25T16:58:52;32.70;77.40
33023;DHT22;19390;51.460;5.710;2022-08-25T17:01:20;32.80;79.80
33023;DHT22;19390;51.460;5.710;2022-08-25T17:03:47;32.70;80.50
33023;DHT22;19390;51.460;5.710;2022-08-25T17:06:15;32.50;80.00
33023;DHT22;19390;51.460;5.710;2022-08-25T17:08:40;32.60;80.50
33023;DHT22;19390;51.460;5.710;2022-08-25T17:11:10;32.40;80.90
33023;DHT22;19390;51.460;5.710;2022-08-25T17:13:39;32.30;82.70
33023;DHT22;19390;51.460;5.710;2022-08-25T17:16:05;32.10;79.40
33023;DHT22;19390;51.460;5.710;2022-08-25T17:18:31;31.90;79.80
33023;DHT22;19390;51.460;5.710;2022-08-25T17:21:02;31.80;79.50
33023;DHT22;19390;51.460;5.710;2022-08-25T17:23:29;31.70;81.00
33023;DHT22;19390;51.460;5.710;2022-08-25T17:25:54;31.50;82.70
33023;DHT22;19390;51.460;5.710;2022-08-25T17:28:20;31.30;82.40
33023;DHT22;19390;51.460;5.710;2022-08-25T17:30:46;31.10;83.80
33023;DHT22;19390;51.460;5.710;2022-08-25T17:33:12;31.10;84.30
33023;DHT22;19390;51.460;5.710;2022-08-25T17:35:40;30.80;85.10
33023;DHT22;19390;51.460;5.710;2022-08-25T17:38:06;30.80;85.40
33023;DHT22;19390;51.460;5.710;2022-08-25T17:40:32;30.80;86.70
33023;DHT22;19390;51.460;5.710;2022-08-25T17:42:58;30.70;86.90